createdAt,value
2019-04-21T00:04:55.518Z,16.80
2019-04-21T00:07:45.032Z,17.07
2019-04-21T00:13:08.061Z,16.57
2019-04-21T00:15:53.904Z,16.53
2019-04-21T00:18:40.729Z,17.00
2019-04-21T00:21:22.506Z,16.60
2019-04-21T00:23:56.158Z,16.27
2019-04-21T00:26:57.811Z,15.33
2019-04-21T00:29:42.531Z,16.67
2019-04-21T00:32:05.545Z,15.17
2019-04-21T00:34:53.509Z,16.47
2019-04-21T00:37:54.269Z,15.50
2019-04-21T00:41:05.524Z,16.97
2019-04-21T00:43:44.768Z,16.87
2019-04-21T00:46:36.307Z,15.60
2019-04-21T00:49:18.143Z,14.67
2019-04-21T00:55:05.897Z,15.13
2019-04-21T00:57:51.421Z,14.53
2019-04-21T01:00:20.231Z,14.33
2019-04-21T01:05:52.864Z,16.07
2019-04-21T01:08:39.984Z,16.20
2019-04-21T01:13:58.270Z,16.43
2019-04-21T01:16:51.385Z,14.30
2019-04-21T01:19:33.179Z,13.20
2019-04-21T01:25:30.269Z,14.70
2019-04-21T01:30:53.544Z,13.80
2019-04-21T01:33:34.883Z,13.40
2019-04-21T01:39:15.041Z,14.97
2019-04-21T01:45:26.472Z,12.47
2019-04-21T01:48:06.646Z,13.17
2019-04-21T01:50:51.639Z,14.27
2019-04-21T01:56:34.698Z,14.13
2019-04-21T01:58:56.404Z,15.20
2019-04-21T02:02:05.177Z,13.57
2019-04-21T02:04:57.789Z,13.37
2019-04-21T02:07:32.622Z,12.03
2019-04-21T02:10:04.809Z,12.03
2019-04-21T02:12:59.730Z,12.50
2019-04-21T02:19:05.811Z,13.30
2019-04-21T02:21:39.290Z,13.10
2019-04-21T02:24:34.940Z,13.30
2019-04-21T02:27:16.078Z,13.33
2019-04-21T02:29:55.443Z,15.07
2019-04-21T02:32:43.427Z,12.90
2019-04-21T02:35:36.400Z,12.60
2019-04-21T02:40:46.620Z,13.63
2019-04-21T02:46:27.104Z,13.93
2019-04-21T02:49:24.118Z,14.17
2019-04-21T03:03:27.671Z,14.50
2019-04-21T03:09:28.025Z,13.27
2019-04-21T03:17:49.884Z,14.67
2019-04-21T03:20:51.012Z,14.40
2019-04-21T03:23:25.749Z,14.33
2019-04-21T03:26:00.949Z,13.50
2019-04-21T03:28:30.138Z,13.73
2019-04-21T03:31:42.387Z,14.77
2019-04-21T03:39:01.336Z,19.43
2019-04-21T03:42:08.750Z,17.97
2019-04-21T03:47:34.532Z,18.20
2019-04-21T03:55:50.896Z,19.13
2019-04-21T03:58:47.335Z,17.27
2019-04-21T04:02:10.717Z,20.17
2019-04-21T04:13:57.921Z,20.37
2019-04-21T04:19:44.604Z,17.17
2019-04-21T04:25:19.287Z,17.07
2019-04-21T04:27:59.783Z,16.67
2019-04-21T04:33:30.714Z,17.80
2019-04-21T04:45:10.171Z,16.37
2019-04-21T04:47:44.097Z,16.60
2019-04-21T04:49:59.455Z,16.30
2019-04-21T04:53:07.700Z,15.23
2019-04-21T05:01:21.461Z,15.20
2019-04-21T05:09:37.092Z,18.00
2019-04-21T05:11:56.318Z,17.20
2019-04-21T05:14:51.877Z,19.80
2019-04-21T05:22:42.361Z,18.70
2019-04-21T05:25:26.718Z,19.40
2019-04-21T05:28:15.157Z,19.57
2019-04-21T05:31:17.977Z,18.00
2019-04-21T05:37:25.638Z,18.80
2019-04-21T05:40:05.459Z,20.40
2019-04-21T05:46:00.734Z,16.57
2019-04-21T05:54:31.156Z,13.73
2019-04-21T05:57:27.266Z,14.30
2019-04-21T06:00:39.085Z,12.93
2019-04-21T06:09:30.899Z,13.60
2019-04-21T06:12:14.754Z,10.50
2019-04-21T06:14:54.570Z,11.17
2019-04-21T06:17:52.567Z,11.30
2019-04-21T06:20:34.957Z,10.63
2019-04-21T06:23:20.291Z,10.40
2019-04-21T06:25:54.964Z,10.13
2019-04-21T06:28:43.472Z,8.47
2019-04-21T06:31:42.599Z,7.90
2019-04-21T06:34:06.752Z,7.60
2019-04-21T06:36:56.720Z,6.20
2019-04-21T06:42:26.670Z,6.20
2019-04-21T06:45:10.256Z,5.17
2019-04-21T06:48:02.825Z,5.00
2019-04-21T06:50:45.815Z,4.43
2019-04-21T06:53:35.998Z,4.57
2019-04-21T06:56:09.239Z,5.23
2019-04-21T06:58:35.583Z,4.73
2019-04-21T07:01:34.290Z,4.67
2019-04-21T07:04:36.814Z,5.13
2019-04-21T07:06:59.429Z,4.27
2019-04-21T07:09:31.856Z,5.57
2019-04-21T07:12:04.178Z,5.17
2019-04-21T07:15:14.788Z,6.00
2019-04-21T07:18:12.657Z,4.40
2019-04-21T07:20:45.023Z,4.77
2019-04-21T07:24:10.365Z,4.83
2019-04-21T07:26:51.579Z,5.37
2019-04-21T07:32:04.620Z,5.10
2019-04-21T07:34:52.206Z,3.30
2019-04-21T07:37:30.649Z,3.90
2019-04-21T07:40:05.197Z,3.27
2019-04-21T07:42:49.903Z,2.80
2019-04-21T07:45:13.641Z,2.93
2019-04-21T07:48:35.739Z,3.50
2019-04-21T07:51:25.367Z,3.10
2019-04-21T07:54:18.372Z,3.20
2019-04-21T07:56:52.434Z,3.60
2019-04-21T07:59:56.547Z,3.73
2019-04-21T08:05:08.815Z,4.40
2019-04-21T08:07:55.756Z,3.90
2019-04-21T08:10:38.106Z,4.93
2019-04-21T08:13:28.821Z,4.87
2019-04-21T08:15:50.979Z,4.77
2019-04-21T08:18:47.215Z,4.53
2019-04-21T08:21:24.631Z,5.03
2019-04-21T08:24:20.046Z,4.90
2019-04-21T08:27:04.950Z,4.90
2019-04-21T08:32:07.845Z,5.17
2019-04-21T08:35:22.194Z,5.70
2019-04-21T08:37:48.479Z,4.90
2019-04-21T08:40:27.054Z,5.03
2019-04-21T08:46:01.096Z,4.30
2019-04-21T08:49:03.761Z,4.80
2019-04-21T08:51:57.207Z,3.97
2019-04-21T08:54:49.632Z,3.87
2019-04-21T09:00:32.479Z,3.90
2019-04-21T09:06:18.963Z,4.07
2019-04-21T09:08:39.255Z,4.33
2019-04-21T09:11:08.164Z,3.53
2019-04-21T09:13:40.938Z,3.60
2019-04-21T09:16:57.737Z,3.80
2019-04-21T09:19:58.038Z,3.60
2019-04-21T09:23:00.500Z,3.20
2019-04-21T09:28:57.136Z,3.60
2019-04-21T09:31:43.524Z,4.07
2019-04-21T09:34:38.526Z,6.00
2019-04-21T09:37:26.512Z,4.20
2019-04-21T09:42:21.901Z,4.47
2019-04-21T09:45:17.630Z,4.47
2019-04-21T09:48:02.755Z,5.07
2019-04-21T09:50:24.839Z,4.07
2019-04-21T09:52:57.701Z,4.00
2019-04-21T09:56:11.769Z,4.63
2019-04-21T09:58:46.857Z,5.70
2019-04-21T10:01:46.183Z,4.33
2019-04-21T10:04:10.365Z,4.20
2019-04-21T10:06:49.847Z,4.70
2019-04-21T10:09:29.472Z,3.97
2019-04-21T10:11:55.551Z,4.50
2019-04-21T10:14:49.677Z,3.80
2019-04-21T10:20:46.686Z,4.37
2019-04-21T10:23:39.992Z,4.50
2019-04-21T10:26:19.065Z,4.90
2019-04-21T10:32:07.215Z,5.17
2019-04-21T10:34:47.490Z,4.43
2019-04-21T10:37:40.077Z,5.27
2019-04-21T10:40:08.009Z,4.50
2019-04-21T10:42:35.363Z,4.50
2019-04-21T10:45:28.669Z,5.50
2019-04-21T10:47:54.870Z,4.17
2019-04-21T10:51:10.745Z,3.90
2019-04-21T10:54:15.858Z,4.60
2019-04-21T10:56:56.550Z,4.33
2019-04-21T10:59:37.442Z,4.50
2019-04-21T11:02:19.012Z,4.07
2019-04-21T11:04:46.897Z,4.30
2019-04-21T11:08:08.899Z,4.67
2019-04-21T11:10:41.306Z,5.07
2019-04-21T11:13:20.835Z,4.67
2019-04-21T11:15:47.527Z,5.07
2019-04-21T11:18:21.924Z,4.67
2019-04-21T11:21:09.165Z,4.10
2019-04-21T11:23:50.050Z,4.17
2019-04-21T11:26:29.997Z,4.50
2019-04-21T11:29:09.084Z,4.87
2019-04-21T11:35:07.379Z,4.30
2019-04-21T11:37:46.507Z,5.03
2019-04-21T11:40:25.531Z,4.53
2019-04-21T11:43:05.989Z,4.50
2019-04-21T11:45:46.308Z,4.80
2019-04-21T11:48:30.282Z,4.23
2019-04-21T11:50:57.286Z,4.30
2019-04-21T11:56:55.291Z,4.30
2019-04-21T12:02:30.393Z,4.53
2019-04-21T12:05:17.325Z,5.13
2019-04-21T12:07:51.331Z,4.10
2019-04-21T12:10:45.099Z,4.77
2019-04-21T12:13:32.251Z,4.73
2019-04-21T12:16:12.852Z,4.10
2019-04-21T12:18:52.403Z,4.03
2019-04-21T12:21:46.647Z,4.10
2019-04-21T12:24:13.308Z,4.70
2019-04-21T12:26:52.334Z,4.40
2019-04-21T12:29:31.557Z,4.00
2019-04-21T12:32:17.956Z,4.13
2019-04-21T12:35:06.115Z,3.53
2019-04-21T12:40:58.566Z,3.20
2019-04-21T12:43:44.576Z,4.10
2019-04-21T12:46:25.591Z,3.70
2019-04-21T12:49:05.409Z,3.63
2019-04-21T12:51:31.430Z,3.87
2019-04-21T12:53:57.522Z,3.43
2019-04-21T12:56:37.938Z,3.57
2019-04-21T12:59:05.038Z,3.30
2019-04-21T13:01:59.086Z,3.27
2019-04-21T13:04:33.557Z,3.13
2019-04-21T13:07:07.806Z,3.60
2019-04-21T13:09:42.082Z,3.17
2019-04-21T13:12:35.619Z,3.37
2019-04-21T13:18:33.841Z,3.30
2019-04-21T13:21:14.023Z,3.30
2019-04-21T13:23:58.821Z,3.30
2019-04-21T13:29:38.562Z,3.80
2019-04-21T13:32:39.173Z,3.80
2019-04-21T13:35:21.112Z,3.47
2019-04-21T13:38:31.044Z,4.10
2019-04-21T13:41:29.804Z,3.40
2019-04-21T13:46:49.018Z,3.60
2019-04-21T13:49:21.490Z,4.13
2019-04-21T13:52:08.834Z,3.50
2019-04-21T13:54:41.617Z,4.27
2019-04-21T13:57:08.363Z,3.03
2019-04-21T13:59:59.242Z,3.50
2019-04-21T14:02:38.756Z,2.90
2019-04-21T14:05:18.513Z,3.30
2019-04-21T14:07:46.031Z,3.07
2019-04-21T14:10:39.809Z,2.83
2019-04-21T14:13:06.713Z,2.80
2019-04-21T14:16:00.104Z,2.87
2019-04-21T14:18:40.579Z,2.97
2019-04-21T14:21:21.109Z,3.37
2019-04-21T14:26:47.830Z,2.83
2019-04-21T14:29:41.722Z,2.53
2019-04-21T14:32:16.094Z,3.10
2019-04-21T14:35:27.232Z,2.80
2019-04-21T14:38:07.076Z,2.50
2019-04-21T14:40:35.081Z,2.73
2019-04-21T14:43:08.062Z,2.70
2019-04-21T14:46:00.987Z,2.40
2019-04-21T14:51:45.402Z,2.33
2019-04-21T14:54:33.008Z,2.83
2019-04-21T14:57:21.101Z,2.70
2019-04-21T14:59:47.279Z,2.50
2019-04-21T15:05:45.133Z,2.83
2019-04-21T15:08:33.381Z,2.83
2019-04-21T15:14:06.125Z,2.70
2019-04-21T15:16:44.917Z,3.30
2019-04-21T15:19:32.762Z,3.13
2019-04-21T15:22:12.649Z,2.30
2019-04-21T15:24:56.311Z,2.50
2019-04-21T15:27:36.920Z,2.57
2019-04-21T15:33:12.708Z,3.10
2019-04-21T15:35:47.010Z,2.60
2019-04-21T15:38:35.873Z,3.40
2019-04-21T15:41:06.410Z,2.70
2019-04-21T15:43:57.295Z,2.67
2019-04-21T15:46:45.989Z,2.90
2019-04-21T15:49:13.295Z,3.00
2019-04-21T15:55:26.447Z,3.23
2019-04-21T16:01:04.837Z,3.47
2019-04-21T16:07:09.124Z,3.43
2019-04-21T16:09:48.200Z,4.43
2019-04-21T16:12:27.775Z,3.47
2019-04-21T16:18:12.174Z,4.30
2019-04-21T16:20:45.995Z,4.47
2019-04-21T16:23:26.507Z,3.97
2019-04-21T16:31:44.218Z,3.57
2019-04-21T16:34:34.476Z,3.80
2019-04-21T16:37:05.642Z,3.90
2019-04-21T16:39:45.329Z,3.70
2019-04-21T16:42:24.769Z,4.03
2019-04-21T16:50:49.805Z,4.57
2019-04-21T16:53:32.294Z,4.30
2019-04-21T16:56:20.296Z,4.20
2019-04-21T17:04:38.224Z,3.67
2019-04-21T17:07:32.314Z,3.00
2019-04-21T17:10:20.267Z,3.60
2019-04-21T17:12:59.981Z,4.10
2019-04-21T17:15:53.100Z,3.63
2019-04-21T17:18:36.872Z,3.80
2019-04-21T17:21:03.116Z,3.83
2019-04-21T17:23:43.897Z,3.50
2019-04-21T17:26:23.690Z,3.67
2019-04-21T17:29:02.788Z,4.17
2019-04-21T17:41:30.620Z,4.00
2019-04-21T18:02:08.057Z,4.80
2019-04-21T18:05:02.402Z,5.37
2019-04-21T18:07:31.657Z,5.10
2019-04-21T18:10:30.671Z,5.70
2019-04-21T18:16:15.850Z,5.60
2019-04-21T18:18:52.929Z,5.60
2019-04-21T18:21:40.246Z,5.97
2019-04-21T18:24:23.026Z,6.43
2019-04-21T18:30:08.364Z,5.50
2019-04-21T18:32:42.545Z,4.90
2019-04-21T18:35:37.779Z,6.13
2019-04-21T18:42:18.604Z,4.37
2019-04-21T18:48:04.863Z,5.20
2019-04-21T18:50:58.892Z,4.30
2019-04-21T18:53:48.015Z,5.40
2019-04-21T18:56:08.262Z,5.90
2019-04-21T18:59:02.600Z,4.27
2019-04-21T19:04:17.098Z,5.03
2019-04-21T19:07:17.969Z,6.40
2019-04-21T19:10:16.024Z,5.13
2019-04-21T19:13:20.491Z,4.90
2019-04-21T19:20:47.517Z,6.13
2019-04-21T19:23:39.164Z,5.90
2019-04-21T19:26:09.970Z,5.33
2019-04-21T19:28:52.598Z,8.13
2019-04-21T19:31:39.797Z,5.93
2019-04-21T19:34:01.042Z,5.97
2019-04-21T19:36:51.206Z,5.93
2019-04-21T19:39:39.244Z,5.73
2019-04-21T19:45:17.613Z,5.47
2019-04-21T19:48:15.374Z,5.20
2019-04-21T19:50:50.549Z,5.30
2019-04-21T19:53:37.111Z,6.40
2019-04-21T19:56:11.976Z,8.27
2019-04-21T20:01:33.125Z,6.63
2019-04-21T20:04:12.717Z,8.83
2019-04-21T20:07:02.862Z,7.43
2019-04-21T20:09:38.004Z,6.30
2019-04-21T20:15:56.998Z,6.50
2019-04-21T20:18:34.906Z,7.50
2019-04-21T20:21:08.152Z,7.37
2019-04-21T20:23:49.388Z,7.30
2019-04-21T20:26:35.696Z,8.40
2019-04-21T20:29:31.022Z,7.73
2019-04-21T20:32:17.873Z,8.77
2019-04-21T20:34:41.438Z,6.93
2019-04-21T20:37:15.015Z,7.00
2019-04-21T20:39:53.387Z,7.10
2019-04-21T20:42:38.941Z,7.30
2019-04-21T20:47:52.157Z,7.47
2019-04-21T20:51:11.836Z,11.90
2019-04-21T20:54:02.950Z,9.00
2019-04-21T20:57:02.681Z,9.07
2019-04-21T20:59:34.466Z,7.93
2019-04-21T21:02:07.024Z,8.57
2019-04-21T21:04:39.538Z,10.00
2019-04-21T21:07:45.895Z,8.60
2019-04-21T21:10:16.653Z,9.47
2019-04-21T21:13:06.155Z,9.47
2019-04-21T21:15:36.634Z,8.47
2019-04-21T21:18:15.512Z,9.83
2019-04-21T21:21:04.614Z,9.90
2019-04-21T21:23:52.751Z,11.97
2019-04-21T21:26:31.177Z,12.50
2019-04-21T21:29:00.348Z,10.13
2019-04-21T21:32:14.997Z,12.67
2019-04-21T21:34:40.978Z,10.70
2019-04-21T21:37:21.750Z,8.80
2019-04-21T21:40:15.752Z,10.23
2019-04-21T21:42:43.878Z,8.77
2019-04-21T21:45:25.534Z,9.30
2019-04-21T21:50:40.442Z,8.83
2019-04-21T21:53:28.525Z,10.87
2019-04-21T22:01:51.962Z,9.13
2019-04-21T22:07:49.262Z,10.23
2019-04-21T22:10:29.366Z,10.40
2019-04-21T22:13:06.066Z,10.37
2019-04-21T22:15:56.402Z,10.80
2019-04-21T22:18:34.664Z,10.63
2019-04-21T22:21:09.117Z,10.17
2019-04-21T22:26:39.316Z,10.27
2019-04-21T22:29:30.302Z,10.70
2019-04-21T22:32:17.470Z,10.80
2019-04-21T22:34:59.780Z,13.00
2019-04-21T22:37:38.036Z,12.37
2019-04-21T22:40:25.849Z,11.97
2019-04-21T22:43:04.977Z,10.50
2019-04-21T22:49:14.524Z,9.70
2019-04-21T22:51:49.980Z,10.87
2019-04-21T22:54:43.218Z,9.70
2019-04-21T22:57:51.781Z,9.50
2019-04-21T23:04:00.695Z,12.37
2019-04-21T23:06:59.278Z,10.60
2019-04-21T23:09:24.625Z,10.03
2019-04-21T23:12:00.006Z,9.93
2019-04-21T23:14:45.403Z,9.87
2019-04-21T23:17:46.260Z,10.33
2019-04-21T23:20:53.631Z,9.83
2019-04-21T23:23:35.739Z,8.80
2019-04-21T23:26:18.184Z,10.10
2019-04-21T23:28:47.898Z,10.20
2019-04-21T23:31:39.773Z,11.77
2019-04-21T23:33:54.507Z,10.80
2019-04-21T23:36:31.422Z,9.47
2019-04-21T23:39:22.629Z,9.90
2019-04-21T23:41:57.747Z,9.40
2019-04-21T23:44:41.770Z,8.93
2019-04-21T23:47:30.436Z,8.80
2019-04-21T23:49:54.551Z,9.07
2019-04-21T23:52:41.580Z,9.93
2019-04-21T23:55:14.560Z,10.00
2019-04-21T23:57:44.942Z,9.73
